Terminal Aerodrome Forecast
Issued by NWS Shreveport, LA

Home | Current Version | Previous Version | Text Only | Print | Product List | Glossary On
Versions: 1 2 3 4 5 6 7 8 9 10 11 12 13 14 15 16 17 18 19
569
FTUS44 KSHV 231153
TAFLFK
TAF
KLFK 231153Z 2312/2412 29004KT P6SM BKN025
      TEMPO 2312/2314 32008KT SCT030
     FM231400 33010G16KT P6SM SCT250
     FM240000 35005KT P6SM SKC
     FM240400 00000KT P6SM SKC=

USA.gov is the U.S. government's official web portal to all federal, state and local government web resources and services.